Time;durP1;ratioP1;P1;durP2;ratioP2;P2;SDS_P1;SDS_P2;PMS_P1;PMS_P2;Temp;Humidity;BMP_temperature;BMP_pressure;BME280_temperature;BME280_humidity;BME280_pressure;Samples;Min_cycle;Max_cycle;Signal;HPM_P1;HPM_P2
2022/09/05 00:01:26;;;;;;;1015.78;927.80;;;23.10;94.80;;;;;;4989658;28;20322;-82
2022/09/05 00:03:58;;;;;;;1014.30;926.63;;;23.10;94.90;;;;;;4954554;28;1113445;-82
2022/09/05 00:06:31;;;;;;;1015.92;928.38;;;23.10;95.00;;;;;;4994292;28;20282;-83
2022/09/05 00:09:04;;;;;;;1009.08;921.35;;;23.10;95.10;;;;;;4995996;28;20201;-81
2022/09/05 00:11:39;;;;;;;1008.72;921.38;;;23.10;95.10;;;;;;4989799;28;20197;-82
2022/09/05 00:14:29;;;;;;;1021.20;933.20;;;23.10;95.20;;;;;;4976302;28;20208;-82
2022/09/05 00:17:08;;;;;;;995.78;908.80;;;23.10;95.20;;;;;;4988959;28;20209;-81
2022/09/05 00:19:43;;;;;;;1019.65;931.67;;;23.00;95.30;;;;;;4992749;28;20201;-81
2022/09/05 00:22:23;;;;;;;1012.83;925.15;;;23.00;95.40;;;;;;4991613;28;20662;-81
2022/09/05 00:25:03;;;;;;;1007.42;919.70;;;23.00;95.40;;;;;;4990345;28;20232;-82
2022/09/05 00:27:40;;;;;;;1022.65;934.22;;;23.00;95.50;;;;;;4991953;28;20192;-81
2022/09/05 00:30:09;;;;;;;1010.03;922.30;;;23.00;95.60;;;;;;4990414;28;20572;-82
2022/09/05 00:35:52;;;;;;;1010.03;921.95;;;23.00;95.70;;;;;;5106158;27;20565;-72
2022/09/05 00:38:22;;;;;;;1012.03;924.03;;;22.90;95.80;;;;;;5099469;28;20189;-75
2022/09/05 00:40:52;;;;;;;1007.90;920.13;;;22.90;95.90;;;;;;5108635;28;20197;-72
2022/09/05 00:43:22;;;;;;;1021.42;933.30;;;22.90;96.00;;;;;;5091315;28;20193;-73
2022/09/05 00:45:54;;;;;;;1005.25;918.00;;;22.90;96.00;;;;;;5100820;28;20193;-73
2022/09/05 00:48:29;;;;;;;1008.25;920.65;;;22.90;96.10;;;;;;5106703;28;20641;-73
2022/09/05 00:51:11;;;;;;;987.15;900.13;;;22.80;96.20;;;;;;5095491;28;20204;-73
2022/09/05 00:53:46;;;;;;;1012.70;924.42;;;22.80;96.20;;;;;;5104705;28;20216;-73
2022/09/05 00:56:30;;;;;;;1012.22;923.72;;;22.80;96.30;;;;;;5101446;28;20288;-72
2022/09/05 00:59:27;;;;;;;997.60;909.78;;;22.80;96.40;;;;;;5098817;28;20197;-72
2022/09/05 01:02:04;;;;;;;1007.97;920.00;;;22.80;96.50;;;;;;5102502;28;20193;-72
2022/09/05 01:04:40;;;;;;;999.30;911.30;;;22.70;96.50;;;;;;5103690;28;20228;-73
2022/09/05 01:07:37;;;;;;;995.40;907.58;;;22.70;96.60;;;;;;5098794;28;20559;-72
2022/09/05 01:10:19;;;;;;;999.95;912.42;;;22.70;96.70;;;;;;5103387;28;20567;-72
2022/09/05 01:13:05;;;;;;;1001.33;913.47;;;22.70;96.70;;;;;;5103665;28;20617;-72
2022/09/05 01:15:43;;;;;;;1001.88;914.15;;;22.70;96.70;;;;;;5088665;28;20218;-72
2022/09/05 01:18:27;;;;;;;1006.28;918.28;;;22.70;96.80;;;;;;5102820;28;20203;-72
2022/09/05 01:21:18;;;;;;;1017.30;929.10;;;22.60;96.80;;;;;;5103779;28;20198;-72
2022/09/05 01:24:05;;;;;;;1003.45;915.85;;;22.60;96.80;;;;;;5094917;28;20672;-72
2022/09/05 01:26:50;;;;;;;993.13;905.85;;;22.60;96.90;;;;;;5085027;28;20217;-73
2022/09/05 01:29:25;;;;;;;1004.60;917.03;;;22.60;96.90;;;;;;5094400;28;20204;-73
2022/09/05 01:32:14;;;;;;;993.67;906.85;;;22.60;97.00;;;;;;5102282;28;20197;-73
2022/09/05 01:34:54;;;;;;;1009.42;921.67;;;22.60;97.30;;;;;;5093466;28;20217;-75
2022/09/05 01:37:25;;;;;;;987.22;899.90;;;22.60;97.00;;;;;;5092563;28;20196;-76
2022/09/05 01:40:04;;;;;;;980.13;893.38;;;22.50;97.00;;;;;;5099271;28;20190;-75
2022/09/05 01:42:39;;;;;;;991.25;904.03;;;22.50;97.10;;;;;;5099082;28;20561;-75
2022/09/05 01:45:18;;;;;;;981.22;894.25;;;22.50;97.20;;;;;;5090781;28;20284;-75
2022/09/05 01:47:51;;;;;;;996.50;909.25;;;22.50;97.20;;;;;;5085621;28;20194;-75
2022/09/05 01:50:36;;;;;;;998.22;910.78;;;22.50;97.30;;;;;;5082352;28;20191;-74
2022/09/05 01:53:24;;;;;;;984.85;898.08;;;22.50;97.30;;;;;;5079715;28;20189;-74
2022/09/05 01:56:05;;;;;;;981.92;895.08;;;22.50;97.40;;;;;;5088521;28;20552;-74
2022/09/05 01:58:45;;;;;;;996.35;908.85;;;22.40;97.40;;;;;;5084935;28;20332;-74
2022/09/05 02:01:20;;;;;;;981.03;893.88;;;22.40;97.50;;;;;;5077170;28;20657;-75
2022/09/05 02:03:52;;;;;;;996.20;908.72;;;22.40;97.60;;;;;;5088245;28;20209;-74
2022/09/05 02:06:42;;;;;;;985.33;898.25;;;22.40;97.60;;;;;;5080279;28;20202;-74
2022/09/05 02:09:48;;;;;;;984.42;897.45;;;22.40;97.70;;;;;;5085091;28;20667;-73
2022/09/05 02:12:24;;;;;;;972.38;885.33;;;22.40;97.70;;;;;;5082014;28;20194;-74
2022/09/05 02:14:57;;;;;;;975.60;888.88;;;22.30;97.70;;;;;;5073680;28;20224;-74
2022/09/05 02:17:30;;;;;;;983.95;896.70;;;22.30;97.70;;;;;;5081560;28;20204;-74
2022/09/05 02:20:06;;;;;;;983.38;896.00;;;22.30;97.80;;;;;;5079106;28;20187;-74
2022/09/05 02:22:42;;;;;;;982.17;895.20;;;22.30;97.90;;;;;;5088783;28;20190;-75
2022/09/05 02:25:16;;;;;;;992.28;904.95;;;22.30;97.90;;;;;;5083830;28;20209;-74
2022/09/05 02:27:49;;;;;;;978.35;891.45;;;22.30;98.00;;;;;;5077443;28;20657;-75
2022/09/05 02:30:18;;;;;;;990.67;903.22;;;22.30;98.00;;;;;;5084820;28;20650;-74
2022/09/05 02:32:58;;;;;;;979.65;892.65;;;22.20;98.10;;;;;;5086252;28;20193;-74
2022/09/05 02:35:30;;;;;;;983.00;895.92;;;22.20;98.10;;;;;;5082438;28;20221;-74
2022/09/05 02:38:04;;;;;;;977.53;890.25;;;22.20;98.20;;;;;;5080391;28;20289;-74
2022/09/05 02:40:44;;;;;;;983.13;896.10;;;22.20;98.20;;;;;;5092808;28;20190;-74
2022/09/05 02:43:19;;;;;;;959.53;873.00;;;22.20;98.30;;;;;;5073680;28;20198;-73
2022/09/05 02:45:54;;;;;;;977.22;890.28;;;22.20;98.30;;;;;;5085339;28;20593;-74
2022/09/05 02:48:28;;;;;;;960.67;874.35;;;22.10;98.30;;;;;;5082381;28;20197;-73
2022/09/05 02:51:08;;;;;;;977.38;890.35;;;22.10;98.40;;;;;;5085141;28;20198;-74
2022/09/05 02:53:35;;;;;;;972.60;885.83;;;22.10;98.50;;;;;;5085511;28;20200;-74
2022/09/05 02:56:37;;;;;;;973.80;886.80;;;22.10;98.50;;;;;;5079182;28;20222;-74
2022/09/05 02:59:15;;;;;;;968.58;882.25;;;22.10;98.60;;;;;;5082701;28;20190;-74
2022/09/05 03:02:01;;;;;;;967.33;880.78;;;22.00;98.60;;;;;;5084989;28;20196;-74
2022/09/05 03:04:37;;;;;;;962.47;876.13;;;22.00;98.70;;;;;;5086429;28;20229;-74
2022/09/05 03:07:20;;;;;;;965.35;878.83;;;22.00;98.80;;;;;;5080528;28;20729;-74
2022/09/05 03:10:14;;;;;;;980.90;893.75;;;22.00;98.80;;;;;;5086291;28;20196;-74
2022/09/05 03:13:13;;;;;;;993.72;905.95;;;22.00;98.90;;;;;;5077852;28;20194;-74
2022/09/05 03:16:11;;;;;;;970.70;883.92;;;22.00;98.90;;;;;;5077845;28;20218;-74
2022/09/05 03:19:18;;;;;;;957.83;871.28;;;21.90;99.00;;;;;;5080351;28;20680;-74
2022/09/05 03:22:21;;;;;;;962.45;875.25;;;21.90;99.00;;;;;;5087667;28;20207;-74
2022/09/05 03:25:32;;;;;;;969.33;882.28;;;21.90;99.20;;;;;;5074915;28;20198;-75
2022/09/05 03:28:33;;;;;;;974.00;886.50;;;21.90;99.30;;;;;;5086843;28;20190;-74
2022/09/05 03:31:24;;;;;;;981.88;894.40;;;21.90;99.30;;;;;;5082308;28;20200;-74
2022/09/05 03:34:24;;;;;;;974.33;887.08;;;21.80;99.40;;;;;;5076942;28;20205;-74
2022/09/05 03:37:23;;;;;;;966.83;879.85;;;21.80;99.40;;;;;;5066796;28;20202;-74
2022/09/05 03:40:35;;;;;;;954.90;868.25;;;21.80;99.60;;;;;;5083656;28;20193;-74
2022/09/05 03:43:34;;;;;;;957.63;871.28;;;21.80;99.60;;;;;;5082279;28;20237;-74
2022/09/05 03:46:17;;;;;;;951.20;865.08;;;21.80;99.70;;;;;;5072412;28;20208;-74
2022/09/05 03:48:54;;;;;;;961.88;875.38;;;21.80;99.80;;;;;;5085127;28;20189;-74
2022/09/05 03:51:31;;;;;;;973.00;886.15;;;21.80;99.80;;;;;;5080756;28;20459;-74
2022/09/05 03:54:12;;;;;;;960.58;874.03;;;21.80;99.90;;;;;;5075626;28;20200;-74
2022/09/05 03:57:00;;;;;;;950.50;864.40;;;21.70;99.90;;;;;;5080236;28;20205;-74
2022/09/05 03:59:51;;;;;;;951.97;865.70;;;21.70;99.90;;;;;;5076157;28;20198;-74
2022/09/05 04:02:21;;;;;;;968.53;881.67;;;21.70;99.90;;;;;;5077004;28;20210;-74
2022/09/05 04:04:53;;;;;;;963.55;876.83;;;21.70;99.90;;;;;;5086262;28;20202;-74
2022/09/05 04:07:25;;;;;;;965.85;879.20;;;21.70;99.90;;;;;;5079836;28;20216;-74
2022/09/05 04:09:58;;;;;;;950.53;864.13;;;21.70;99.90;;;;;;5088944;28;20209;-75
2022/09/05 04:12:28;;;;;;;954.13;867.75;;;21.70;99.90;;;;;;5086476;28;20276;-74
2022/09/05 04:14:59;;;;;;;972.95;886.03;;;21.70;99.90;;;;;;5090187;28;20209;-74
2022/09/05 04:17:34;;;;;;;959.35;872.88;;;21.70;99.90;;;;;;5074862;28;20205;-74
2022/09/05 04:20:08;;;;;;;961.50;874.75;;;21.60;99.90;;;;;;5075057;28;20235;-74
2022/09/05 04:23:00;;;;;;;949.70;863.28;;;21.60;99.90;;;;;;5081833;28;20611;-74
2022/09/05 04:25:41;;;;;;;945.45;859.38;;;21.60;99.90;;;;;;5077979;28;20206;-74
2022/09/05 04:28:20;;;;;;;955.50;869.15;;;21.60;99.90;;;;;;5082496;28;20201;-74
2022/09/05 04:30:52;;;;;;;954.53;868.25;;;21.60;99.90;;;;;;5078213;28;20668;-74
2022/09/05 04:33:22;;;;;;;947.38;861.30;;;21.60;99.90;;;;;;5087905;28;20192;-75
2022/09/05 04:35:56;;;;;;;963.78;877.20;;;21.60;99.90;;;;;;5078744;28;20225;-74
2022/09/05 04:38:36;;;;;;;943.88;857.67;;;21.50;99.90;;;;;;5081829;28;20185;-75
2022/09/05 04:41:09;;;;;;;926.50;840.97;;;21.50;99.90;;;;;;5077402;28;20194;-74
2022/09/05 04:43:40;;;;;;;956.70;870.22;;;21.50;99.90;;;;;;5081537;28;20198;-75
2022/09/05 04:46:14;;;;;;;956.88;869.90;;;21.50;99.90;;;;;;5077566;28;20189;-75
2022/09/05 04:48:47;;;;;;;963.40;876.50;;;21.50;99.90;;;;;;5081073;28;20254;-75
2022/09/05 04:51:42;;;;;;;951.20;864.67;;;21.50;99.90;;;;;;5086763;28;20652;-75
2022/09/05 04:54:25;;;;;;;956.90;870.15;;;21.50;99.90;;;;;;5080399;28;20205;-73
2022/09/05 04:56:58;;;;;;;954.05;867.22;;;21.50;99.90;;;;;;5082910;28;20576;-74
2022/09/05 04:59:31;;;;;;;967.35;880.38;;;21.50;99.90;;;;;;5086561;28;20195;-74
2022/09/05 05:02:02;;;;;;;967.40;880.22;;;21.50;99.90;;;;;;5078649;28;20201;-75
2022/09/05 05:04:30;;;;;;;969.72;882.22;;;21.40;99.90;;;;;;5079695;28;20239;-75
2022/09/05 05:07:06;;;;;;;963.00;876.03;;;21.40;99.90;;;;;;5082683;28;20198;-75
2022/09/05 05:09:39;;;;;;;940.25;853.97;;;21.40;99.90;;;;;;5083436;28;20227;-75
2022/09/05 05:12:16;;;;;;;960.03;873.05;;;21.40;99.90;;;;;;5078793;28;20194;-75
2022/09/05 05:14:46;;;;;;;950.65;864.17;;;21.40;99.90;;;;;;5088242;28;20234;-74
2022/09/05 05:17:28;;;;;;;942.95;856.60;;;21.40;99.90;;;;;;5075746;28;20216;-75
2022/09/05 05:20:01;;;;;;;961.10;874.38;;;21.40;99.90;;;;;;5081707;28;20675;-76
2022/09/05 05:22:28;;;;;;;944.33;857.85;;;21.40;99.90;;;;;;5090152;28;20556;-74
2022/09/05 05:24:57;;;;;;;956.95;870.25;;;21.40;99.90;;;;;;5083813;28;20197;-75
2022/09/05 05:27:31;;;;;;;961.80;874.75;;;21.40;99.90;;;;;;5090860;28;20588;-75
2022/09/05 05:30:04;;;;;;;958.42;871.72;;;21.40;99.90;;;;;;5090818;28;20197;-74
2022/09/05 05:32:33;;;;;;;938.97;852.95;;;21.40;99.90;;;;;;5089409;28;20194;-75
2022/09/05 05:35:07;;;;;;;946.67;860.50;;;21.40;99.90;;;;;;5092835;28;20229;-75
2022/09/05 05:37:38;;;;;;;939.65;853.53;;;21.40;99.90;;;;;;5088664;28;20200;-74
2022/09/05 05:40:08;;;;;;;955.15;868.90;;;21.40;99.90;;;;;;5076225;28;20190;-75
2022/09/05 05:42:38;;;;;;;941.75;855.53;;;21.40;99.90;;;;;;5087954;28;20193;-76
2022/09/05 05:45:15;;;;;;;968.10;881.03;;;21.40;99.90;;;;;;5074358;28;20187;-76
2022/09/05 05:47:44;;;;;;;934.33;848.38;;;21.40;99.90;;;;;;5093047;28;20201;-76
2022/09/05 05:50:26;;;;;;;958.33;871.47;;;21.40;99.90;;;;;;5087621;28;20194;-76
2022/09/05 05:53:21;;;;;;;954.10;867.35;;;21.40;99.90;;;;;;5090921;28;20201;-75
2022/09/05 05:56:06;;;;;;;930.55;844.67;;;21.40;99.90;;;;;;5085040;28;20213;-74
2022/09/05 05:58:57;;;;;;;953.05;866.38;;;21.50;99.90;;;;;;5086265;28;20201;-75
2022/09/05 06:01:52;;;;;;;947.20;860.60;;;21.60;99.90;;;;;;5084460;28;20220;-75
2022/09/05 06:04:48;;;;;;;958.20;871.20;;;21.60;99.90;;;;;;5080646;28;20207;-75
2022/09/05 06:07:27;;;;;;;964.67;877.53;;;21.70;99.90;;;;;;5088146;28;20212;-74
2022/09/05 06:10:20;;;;;;;981.08;893.33;;;21.90;99.90;;;;;;5091377;28;20204;-73
2022/09/05 06:13:28;;;;;;;984.22;896.30;;;22.10;99.90;;;;;;5087080;28;20197;-73
2022/09/05 06:16:22;;;;;;;990.25;902.42;;;22.30;99.90;;;;;;5080584;28;20214;-73
2022/09/05 06:19:28;;;;;;;987.63;899.65;;;22.60;99.70;;;;;;5089393;28;20193;-73
2022/09/05 06:22:29;;;;;;;1000.92;912.50;;;22.90;99.00;;;;;;5086186;28;20244;-73
2022/09/05 06:25:33;;;;;;;1012.22;923.50;;;23.10;98.30;;;;;;5082671;28;20716;-73
2022/09/05 06:28:12;;;;;;;1034.03;944.53;;;23.40;97.60;;;;;;5087142;28;20575;-73
2022/09/05 06:30:45;;;;;;;1040.70;951.10;;;23.50;97.10;;;;;;5078315;28;20204;-73
2022/09/05 06:33:31;;;;;;;1036.68;947.15;;;23.60;96.70;;;;;;5088781;28;20197;-74
2022/09/05 06:36:10;;;;;;;1042.30;952.90;;;23.60;96.50;;;;;;5083204;28;20676;-73
2022/09/05 06:38:51;;;;;;;1050.75;960.63;;;23.70;96.20;;;;;;5085845;28;20266;-74
2022/09/05 06:41:29;;;;;;;1046.28;956.65;;;23.90;96.00;;;;;;5089900;28;20190;-73
2022/09/05 06:44:21;;;;;;;1062.57;972.65;;;23.90;95.80;;;;;;5085329;28;20194;-73
2022/09/05 06:46:52;;;;;;;1035.05;946.22;;;24.00;95.40;;;;;;5082447;28;20209;-73
2022/09/05 06:49:24;;;;;;;1051.45;961.92;;;24.10;95.10;;;;;;5088063;28;20229;-73
2022/09/05 06:52:39;;;;;;;1059.82;970.15;;;24.20;95.00;;;;;;5087147;28;20200;-74
2022/09/05 06:55:38;;;;;;;1061.68;972.08;;;24.30;94.70;;;;;;5082349;28;20190;-73
2022/09/05 06:58:34;;;;;;;1057.82;968.28;;;24.50;94.40;;;;;;5080070;28;20280;-73
2022/09/05 07:01:03;;;;;;;1059.43;969.88;;;24.60;94.10;;;;;;5079169;28;20620;-74
2022/09/05 07:03:46;;;;;;;1063.43;973.72;;;24.60;93.70;;;;;;5082069;28;20245;-73
2022/09/05 07:06:24;;;;;;;1072.07;982.08;;;24.80;93.40;;;;;;5086474;28;20201;-74
2022/09/05 07:09:01;;;;;;;1085.75;994.08;;;24.90;93.20;;;;;;5086212;28;20202;-73
2022/09/05 07:11:35;;;;;;;1073.20;982.97;;;25.00;92.90;;;;;;5085950;28;20198;-75
2022/09/05 07:14:09;;;;;;;1076.67;986.00;;;25.10;92.70;;;;;;5081278;28;20648;-74
2022/09/05 07:16:41;;;;;;;1084.43;993.33;;;25.20;92.50;;;;;;5077412;28;20451;-74
2022/09/05 07:19:25;;;;;;;1098.13;999.15;;;25.20;92.20;;;;;;5082460;28;20877;-75
2022/09/05 07:22:13;;;;;;;1102.28;999.90;;;25.30;92.10;;;;;;5084486;28;20240;-75
2022/09/05 07:24:44;;;;;;;1105.25;999.90;;;25.40;91.90;;;;;;5075772;28;20584;-75
2022/09/05 07:27:14;;;;;;;1091.63;997.53;;;25.50;91.70;;;;;;5078378;28;20205;-73
2022/09/05 07:29:46;;;;;;;1103.27;999.90;;;25.50;91.50;;;;;;5085259;28;20452;-74
2022/09/05 07:32:18;;;;;;;1112.43;999.90;;;25.50;91.40;;;;;;5085340;28;20456;-76
2022/09/05 07:34:47;;;;;;;1100.90;999.90;;;25.60;91.30;;;;;;5077544;28;20473;-73
2022/09/05 07:37:19;;;;;;;1115.93;999.90;;;25.70;91.10;;;;;;5085511;28;20458;-73
2022/09/05 07:39:52;;;;;;;1116.57;999.90;;;25.70;90.90;;;;;;5077029;28;20442;-74
2022/09/05 07:42:24;;;;;;;1127.17;999.90;;;25.80;90.80;;;;;;5086474;28;20453;-73
2022/09/05 07:44:56;;;;;;;1113.30;999.90;;;25.90;90.70;;;;;;5089472;28;20464;-73
2022/09/05 07:47:28;;;;;;;1117.53;999.90;;;25.90;90.50;;;;;;5083145;28;21036;-74
2022/09/05 07:49:58;;;;;;;1117.73;999.90;;;26.00;90.50;;;;;;5084078;28;20445;-73
2022/09/05 07:52:26;;;;;;;1119.47;999.90;;;26.00;90.30;;;;;;5083056;28;20463;-76
2022/09/05 07:54:57;;;;;;;1129.77;999.90;;;26.10;90.20;;;;;;5086084;28;20462;-75
2022/09/05 07:57:28;;;;;;;1129.07;999.90;;;26.10;90.10;;;;;;5072337;28;20459;-73
2022/09/05 07:59:58;;;;;;;1121.60;999.90;;;26.20;89.80;;;;;;5086961;28;20430;-73
2022/09/05 08:02:24;;;;;;;1132.17;999.90;;;26.20;89.70;;;;;;5084982;28;20455;-72
2022/09/05 08:04:51;;;;;;;1121.33;999.90;;;26.20;89.40;;;;;;5087245;28;20438;-73
2022/09/05 08:07:22;;;;;;;1129.80;999.90;;;26.30;89.50;;;;;;5086566;28;20459;-71
2022/09/05 08:09:54;;;;;;;1126.40;999.90;;;26.30;89.10;;;;;;5088829;28;20462;-72
2022/09/05 08:12:25;;;;;;;1135.10;999.90;;;26.40;89.10;;;;;;5087756;28;20443;-72
2022/09/05 08:15:03;;;;;;;1137.07;999.90;;;26.40;88.70;;;;;;5086630;28;20538;-72
2022/09/05 08:17:30;;;;;;;1128.07;999.90;;;26.40;88.50;;;;;;5083535;28;20472;-72
2022/09/05 08:20:20;;;;;;;1134.07;999.90;;;26.50;88.50;;;;;;5076823;28;20448;-72
2022/09/05 08:22:54;;;;;;;1131.77;999.90;;;26.50;88.20;;;;;;5078187;28;20451;-72
2022/09/05 08:25:30;;;;;;;1128.43;999.90;;;26.60;88.20;;;;;;5082855;28;20433;-72
2022/09/05 08:28:05;;;;;;;1135.97;999.90;;;26.60;88.10;;;;;;5088040;28;20443;-72
2022/09/05 08:30:38;;;;;;;1141.60;999.90;;;26.60;87.90;;;;;;5078285;28;20984;-72
2022/09/05 08:33:09;;;;;;;1141.03;999.90;;;26.60;87.70;;;;;;5080695;28;20456;-72
2022/09/05 08:35:41;;;;;;;1147.67;999.90;;;26.60;87.70;;;;;;5084713;28;20935;-72
2022/09/05 08:38:08;;;;;;;1147.50;999.90;;;26.60;87.60;;;;;;5077849;28;20458;-72
2022/09/05 08:40:41;;;;;;;1148.33;999.90;;;26.60;87.60;;;;;;5081592;28;20463;-72
2022/09/05 08:43:15;;;;;;;1142.37;999.90;;;26.60;87.60;;;;;;5085377;28;20459;-72
2022/09/05 08:45:49;;;;;;;1144.87;999.90;;;26.70;87.50;;;;;;5084111;28;20455;-72
2022/09/05 08:48:25;;;;;;;1134.57;999.90;;;26.70;87.40;;;;;;5084482;28;20439;-72
2022/09/05 08:51:11;;;;;;;1150.80;999.90;;;26.70;87.40;;;;;;5083083;28;20460;-72
2022/09/05 08:53:59;;;;;;;1143.10;999.90;;;26.70;87.50;;;;;;5072191;28;20460;-72
2022/09/05 08:56:37;;;;;;;1122.73;999.90;;;26.70;87.30;;;;;;5083434;28;20486;-72
2022/09/05 08:59:18;;;;;;;1130.20;999.90;;;26.70;87.30;;;;;;5082216;28;20462;-72
2022/09/05 09:02:01;;;;;;;1141.73;999.90;;;26.70;87.30;;;;;;5085058;28;20459;-73
2022/09/05 09:04:39;;;;;;;1144.23;999.90;;;26.70;87.30;;;;;;5091366;28;20471;-72
2022/09/05 09:07:16;;;;;;;1140.27;999.90;;;26.70;87.10;;;;;;5079468;28;20483;-73
2022/09/05 09:09:53;;;;;;;1130.87;999.90;;;26.70;86.70;;;;;;5087144;28;20463;-72
2022/09/05 09:12:43;;;;;;;1133.37;999.90;;;26.70;86.90;;;;;;5077573;28;20459;-73
2022/09/05 09:15:16;;;;;;;1139.30;999.90;;;26.70;86.80;;;;;;5080193;28;20452;-72
2022/09/05 09:17:44;;;;;;;1135.80;999.90;;;26.70;86.80;;;;;;5089275;28;20474;-72
2022/09/05 09:20:32;;;;;;;1149.07;999.90;;;26.70;87.00;;;;;;5082074;28;20998;-73
2022/09/05 09:23:04;;;;;;;1141.60;999.90;;;26.70;86.90;;;;;;5087010;28;20455;-73
2022/09/05 09:25:37;;;;;;;1143.13;999.90;;;26.70;87.00;;;;;;5082803;28;20488;-77
2022/09/05 09:28:42;;;;;;;1147.80;999.90;;;26.70;87.00;;;;;;5083458;28;20447;-73
2022/09/05 09:31:17;;;;;;;1142.07;999.90;;;26.70;86.90;;;;;;5085019;28;20500;-73
2022/09/05 09:33:47;;;;;;;1140.60;999.90;;;26.60;87.20;;;;;;5087715;28;20463;-73
2022/09/05 09:36:47;;;;;;;1141.60;999.90;;;26.60;87.20;;;;;;5083667;28;20480;-73
2022/09/05 09:39:25;;;;;;;1131.43;999.90;;;26.60;87.10;;;;;;5082001;28;20431;-73
2022/09/05 09:42:02;;;;;;;1142.43;999.90;;;26.60;87.10;;;;;;5082851;28;20452;-73
2022/09/05 09:45:04;;;;;;;1130.70;999.90;;;26.60;87.10;;;;;;5081427;28;20819;-73
2022/09/05 09:48:01;;;;;;;1137.77;999.90;;;26.60;87.10;;;;;;5076476;28;20430;-73
2022/09/05 09:50:58;;;;;;;1127.17;999.90;;;26.60;87.10;;;;;;5083149;28;20436;-73
2022/09/05 09:53:44;;;;;;;1147.00;999.90;;;26.60;86.80;;;;;;5079820;28;20467;-73
2022/09/05 09:56:44;;;;;;;1124.50;999.90;;;26.60;87.10;;;;;;5083732;28;20465;-73
2022/09/05 09:59:30;;;;;;;1129.20;999.90;;;26.60;86.80;;;;;;5078286;28;20455;-73
2022/09/05 10:02:20;;;;;;;1127.30;999.90;;;26.50;86.90;;;;;;5081390;28;20434;-72
2022/09/05 10:05:15;;;;;;;1135.77;999.90;;;26.50;86.90;;;;;;5087212;28;20468;-73
2022/09/05 10:08:00;;;;;;;1132.37;999.90;;;26.40;86.70;;;;;;5081078;28;20456;-73
2022/09/05 10:11:05;;;;;;;1124.03;999.90;;;26.40;86.80;;;;;;5087070;28;20460;-73
2022/09/05 10:14:05;;;;;;;1126.70;999.90;;;26.30;87.00;;;;;;5076920;28;20441;-73
2022/09/05 10:16:59;;;;;;;1121.97;999.90;;;26.30;87.00;;;;;;5050613;28;20519;-73
2022/09/05 10:19:53;;;;;;;1122.03;999.90;;;26.20;87.30;;;;;;5080995;28;20456;-72
2022/09/05 10:22:40;;;;;;;1113.97;999.90;;;26.20;87.70;;;;;;5087984;28;20529;-73
2022/09/05 10:25:33;;;;;;;1116.20;999.90;;;26.20;87.40;;;;;;5088143;28;20451;-73
2022/09/05 10:28:05;;;;;;;1120.90;999.90;;;26.30;86.90;;;;;;5093296;28;20443;-73
2022/09/05 10:30:44;;;;;;;1113.10;999.90;;;26.30;87.10;;;;;;5080696;28;20869;-73
2022/09/05 10:33:28;;;;;;;1120.73;999.90;;;26.30;86.80;;;;;;5081374;28;20458;-74
2022/09/05 10:36:02;;;;;;;1124.60;999.90;;;26.20;86.70;;;;;;5082536;28;20505;-74
2022/09/05 10:38:39;;;;;;;1118.47;999.90;;;26.20;86.20;;;;;;5086925;28;20511;-73
2022/09/05 10:41:10;;;;;;;1119.70;999.90;;;26.20;86.00;;;;;;5079950;28;20977;-73
2022/09/05 10:43:47;;;;;;;1135.00;999.90;;;26.20;86.60;;;;;;5088805;28;20869;-73
2022/09/05 10:46:25;;;;;;;1125.07;999.90;;;26.20;85.90;;;;;;5083957;28;20460;-74
2022/09/05 10:48:54;;;;;;;1114.90;999.90;;;26.20;85.60;;;;;;5082033;28;20954;-73
2022/09/05 10:51:29;;;;;;;1118.20;999.90;;;26.20;86.20;;;;;;5082659;28;20459;-73
2022/09/05 10:54:11;;;;;;;1120.37;999.90;;;26.20;86.10;;;;;;5084245;28;20479;-74
2022/09/05 10:56:44;;;;;;;1114.43;999.90;;;26.20;86.20;;;;;;5087355;28;20486;-73
2022/09/05 10:59:19;;;;;;;1113.17;999.90;;;26.10;86.00;;;;;;5080733;28;21219;-72
2022/09/05 11:01:58;;;;;;;1129.03;999.90;;;26.10;86.30;;;;;;5083455;28;20462;-73
2022/09/05 11:04:40;;;;;;;1119.33;999.90;;;26.10;86.40;;;;;;5082095;28;20594;-72
2022/09/05 11:07:13;;;;;;;1119.33;999.90;;;26.10;85.50;;;;;;5082389;28;20463;-73
2022/09/05 11:09:58;;;;;;;1129.43;999.90;;;26.10;86.10;;;;;;5081221;28;20835;-73
2022/09/05 11:12:33;;;;;;;1107.00;999.90;;;26.10;86.30;;;;;;5076561;28;20264;-73
2022/09/05 11:15:03;;;;;;;1121.77;999.90;;;26.10;86.30;;;;;;5079447;28;20470;-73
2022/09/05 11:17:37;;;;;;;1104.23;999.90;;;26.10;86.40;;;;;;5083947;28;20471;-73
2022/09/05 11:20:27;;;;;;;1118.90;999.90;;;26.10;85.30;;;;;;5085335;28;20463;-73
2022/09/05 11:23:00;;;;;;;1121.13;999.90;;;26.10;85.10;;;;;;5083730;28;20482;-73
2022/09/05 11:25:30;;;;;;;1122.67;999.90;;;26.20;85.10;;;;;;5084916;28;20455;-73
2022/09/05 11:28:06;;;;;;;1117.77;999.90;;;26.20;85.70;;;;;;5085563;28;21097;-73
2022/09/05 11:30:39;;;;;;;1128.40;999.90;;;26.20;84.50;;;;;;5080287;28;20478;-73
2022/09/05 11:33:44;;;;;;;1117.27;999.90;;;26.20;84.40;;;;;;5082269;28;20440;-73
2022/09/05 11:36:18;;;;;;;1123.27;999.90;;;26.30;84.30;;;;;;5073195;28;20463;-74
2022/09/05 11:39:08;;;;;;;1125.13;999.90;;;26.30;84.30;;;;;;5074703;28;20491;-73
2022/09/05 11:42:11;;;;;;;1117.77;999.90;;;26.40;83.70;;;;;;5077705;28;20465;-74
2022/09/05 11:45:08;;;;;;;1117.77;999.90;;;26.40;83.50;;;;;;5079023;28;20456;-73
2022/09/05 11:48:11;;;;;;;1107.60;999.90;;;26.40;83.60;;;;;;5080419;28;20455;-73
2022/09/05 11:51:15;;;;;;;1127.67;999.90;;;26.40;83.40;;;;;;5080433;28;21234;-73
2022/09/05 11:54:31;;;;;;;1095.13;998.70;;;26.40;83.40;;;;;;5080305;28;20447;-73
2022/09/05 11:57:22;;;;;;;1114.57;999.90;;;26.40;83.00;;;;;;5083001;28;20475;-73
2022/09/05 12:00:09;;;;;;;1113.77;999.90;;;26.40;82.60;;;;;;5080268;28;20464;-76
2022/09/05 12:03:10;;;;;;;1117.13;999.90;;;26.40;82.70;;;;;;5085682;28;20475;-76
2022/09/05 12:06:13;;;;;;;1119.57;999.90;;;26.30;82.60;;;;;;5082673;28;20454;-75
2022/09/05 12:08:47;;;;;;;1108.47;999.90;;;26.30;82.30;;;;;;5085037;28;20470;-78
2022/09/05 12:11:25;;;;;;;1114.00;999.90;;;26.30;82.10;;;;;;5081118;28;20937;-77
2022/09/05 12:13:59;;;;;;;1126.50;999.90;;;26.30;82.00;;;;;;5087965;28;20444;-76
2022/09/05 12:16:44;;;;;;;1125.70;999.90;;;26.30;82.40;;;;;;5080492;28;20201;-77
2022/09/05 12:19:21;;;;;;;1117.73;999.90;;;26.30;82.20;;;;;;5080306;28;20567;-74
2022/09/05 12:22:17;;;;;;;1112.10;999.90;;;26.30;82.10;;;;;;5084011;28;20491;-75
2022/09/05 12:25:03;;;;;;;1107.00;999.90;;;26.30;82.00;;;;;;5085639;28;20502;-74
2022/09/05 12:27:36;;;;;;;1108.30;999.90;;;26.40;81.90;;;;;;5080720;28;20459;-75
2022/09/05 12:30:06;;;;;;;1124.80;999.90;;;26.40;81.60;;;;;;5074747;28;20474;-75
2022/09/05 12:32:49;;;;;;;1104.38;999.90;;;26.30;81.50;;;;;;5086407;28;20693;-75
2022/09/05 12:35:30;;;;;;;1110.87;999.90;;;26.30;81.60;;;;;;5085702;28;20220;-73
2022/09/05 12:38:02;;;;;;;1104.13;999.90;;;26.30;81.30;;;;;;5078023;28;20488;-72
2022/09/05 12:40:32;;;;;;;1116.95;999.90;;;26.30;81.10;;;;;;5078140;28;20487;-74
2022/09/05 12:43:02;;;;;;;1119.70;999.90;;;26.30;81.30;;;;;;5081228;28;20196;-72
2022/09/05 12:45:37;;;;;;;1110.40;999.90;;;26.30;81.40;;;;;;5080875;28;20471;-73
2022/09/05 12:48:12;;;;;;;1100.97;999.90;;;26.30;81.20;;;;;;5090109;28;20439;-72
2022/09/05 12:50:46;;;;;;;1114.53;999.90;;;26.30;81.20;;;;;;5074164;28;20998;-73
2022/09/05 12:53:17;;;;;;;1100.87;999.90;;;26.30;81.30;;;;;;5087498;28;20652;-73
2022/09/05 12:55:47;;;;;;;1125.20;999.90;;;26.20;80.80;;;;;;5079116;28;20452;-72
2022/09/05 12:58:22;;;;;;;1114.38;999.90;;;26.30;80.80;;;;;;5086887;28;20259;-72
2022/09/05 13:00:50;;;;;;;1117.15;999.90;;;26.20;80.60;;;;;;5076145;28;20275;-72
2022/09/05 13:03:25;;;;;;;1118.97;999.90;;;26.30;80.60;;;;;;5078304;28;20297;-72
2022/09/05 13:06:01;;;;;;;1109.67;999.90;;;26.30;80.50;;;;;;5078259;28;20552;-73
2022/09/05 13:08:42;;;;;;;1120.40;999.90;;;26.40;80.50;;;;;;5080845;28;20459;-73
2022/09/05 13:11:11;;;;;;;1128.37;999.90;;;26.40;80.20;;;;;;5078881;28;20456;-73